To NAV CANADA Home Page Login to a new session Search on AWWS site Feedback and Comments Disclaimer Vers la page française équivalente Tips FAQ What's new on the site To the Forecasts and Observations / NOTAM section To "File a Flight Plan" website Publications and other links Update of the User's profile FIC Telephone Numbers My Weather Data Folder Route Weather Data Regional Weather Data Local Weather Data To the Forecasts and Observations / NOTAM section
Request Generated 02/28/2015 at 13:52:03 UTC . Weather information available at that time is displayed.

METAR/TAF

HAY RIVER/MERLYN CARTER AIRPORT/NT    

METAR CYHY 281300Z 29014KT 15SM DRSN BKN030 M06/M08 A3012 RMK SC5
SLP213=
METAR CYHY 281200Z 30014G20KT 15SM DRSN BKN025 M05/M08 A3011 RMK SC5
SLP211=
METAR CYHY 281100Z 30014G20KT 15SM DRSN OVC027 M04/M08 A3010 RMK ST8
SLP205=

TAF CYHY 281138Z 2812/2824 30010G20KT P6SM OVC030 TEMPO 2812/2819
BKN020 OVC030
FM281900 31008KT P6SM BKN030
BECMG 2821/2823 14005KT SCT030
RMK NXT FCST BY 281800Z=
Your time UTC time
Weather data provided by Environment Canada and NAV CANADA